createdAt,value
2019-05-20T00:02:04.046Z,88.50
2019-05-20T00:04:35.773Z,88.50
2019-05-20T00:07:07.551Z,88.40
2019-05-20T00:09:38.897Z,88.60
2019-05-20T00:12:10.696Z,88.90
2019-05-20T00:14:42.264Z,89.10
2019-05-20T00:17:14.084Z,89.20
2019-05-20T00:19:45.869Z,89.10
2019-05-20T00:22:17.285Z,88.90
2019-05-20T00:24:48.591Z,88.90
2019-05-20T00:27:20.474Z,88.90
2019-05-20T00:29:51.975Z,88.80
2019-05-20T00:32:40.013Z,88.80
2019-05-20T00:34:57.837Z,88.90
2019-05-20T00:37:29.254Z,88.90
2019-05-20T00:40:01.117Z,89.10
2019-05-20T00:42:32.801Z,89.10
2019-05-20T00:48:32.648Z,89.10
2019-05-20T00:54:16.654Z,89.10
2019-05-20T00:56:50.535Z,89.10
2019-05-20T00:59:21.945Z,89.50
2019-05-20T01:01:54.670Z,89.70
2019-05-20T01:04:26.043Z,89.90
2019-05-20T01:06:57.397Z,89.90
2019-05-20T01:09:28.778Z,90.00
2019-05-20T01:12:00.199Z,90.00
2019-05-20T01:14:32.089Z,89.90
2019-05-20T01:17:03.467Z,90.00
2019-05-20T01:19:35.485Z,90.00
2019-05-20T01:22:07.012Z,90.00
2019-05-20T01:24:38.573Z,90.00
2019-05-20T01:27:10.094Z,90.10
2019-05-20T01:29:41.797Z,90.10
2019-05-20T01:32:13.698Z,90.00
2019-05-20T01:34:45.097Z,90.00
2019-05-20T01:37:16.498Z,90.00
2019-05-20T01:39:48.161Z,90.00
2019-05-20T01:42:19.594Z,90.10
2019-05-20T01:44:51.082Z,90.20
2019-05-20T01:47:22.707Z,90.20
2019-05-20T01:49:54.394Z,90.30
2019-05-20T01:52:25.713Z,90.20
2019-05-20T01:54:57.121Z,90.20
2019-05-20T01:57:28.800Z,90.20
2019-05-20T02:00:00.305Z,90.10
2019-05-20T02:02:32.169Z,90.10
2019-05-20T02:05:04.189Z,90.10
2019-05-20T02:07:35.787Z,90.10
2019-05-20T02:10:07.969Z,90.10
2019-05-20T02:12:39.681Z,90.10
2019-05-20T02:15:21.443Z,90.10
2019-05-20T02:17:52.935Z,90.10
2019-05-20T02:20:24.305Z,90.10
2019-05-20T02:23:13.778Z,90.10
2019-05-20T02:25:47.693Z,90.10
2019-05-20T02:28:19.012Z,90.20
2019-05-20T02:30:50.421Z,90.30
2019-05-20T02:33:22.015Z,90.40
2019-05-20T02:35:53.604Z,90.50
2019-05-20T02:38:25.105Z,90.60
2019-05-20T02:40:56.441Z,90.60
2019-05-20T02:43:28.087Z,90.60
2019-05-20T02:45:59.855Z,90.50
2019-05-20T02:48:32.086Z,90.50
2019-05-20T02:51:03.629Z,90.40
2019-05-20T03:03:22.919Z,90.30
2019-05-20T03:05:54.304Z,90.30
2019-05-20T03:08:25.948Z,90.40
2019-05-20T03:10:57.208Z,90.70
2019-05-20T03:13:28.682Z,90.80
2019-05-20T03:16:00.245Z,91.20
2019-05-20T03:18:32.182Z,91.10
2019-05-20T03:21:03.621Z,91.20
2019-05-20T03:23:35.576Z,91.30
2019-05-20T03:26:06.894Z,91.70
2019-05-20T03:28:38.710Z,91.50
2019-05-20T03:31:10.169Z,91.50
2019-05-20T03:33:41.667Z,91.50
2019-05-20T03:36:13.149Z,91.50
2019-05-20T03:38:44.478Z,91.40
2019-05-20T03:41:15.928Z,91.30
2019-05-20T03:43:47.664Z,91.10
2019-05-20T03:46:19.257Z,91.00
2019-05-20T03:48:50.968Z,91.00
2019-05-20T03:51:22.327Z,90.90
2019-05-20T03:53:54.093Z,90.70
2019-05-20T03:56:25.493Z,90.60
2019-05-20T03:58:56.777Z,90.50
2019-05-20T04:01:28.059Z,90.40
2019-05-20T04:03:59.392Z,90.20
2019-05-20T04:09:45.799Z,90.20
2019-05-20T04:12:17.216Z,90.10
2019-05-20T04:14:48.636Z,90.10
2019-05-20T04:17:20.077Z,90.00
2019-05-20T04:19:51.481Z,90.00
2019-05-20T04:22:22.830Z,90.00
2019-05-20T04:24:54.125Z,89.70
2019-05-20T04:27:25.404Z,89.70
2019-05-20T04:29:58.373Z,89.50
2019-05-20T04:32:30.494Z,89.30
2019-05-20T04:35:20.407Z,88.90
2019-05-20T04:37:36.369Z,88.70
2019-05-20T04:40:08.042Z,88.50
2019-05-20T04:42:39.491Z,88.70
2019-05-20T04:45:11.564Z,88.80
2019-05-20T04:47:43.812Z,89.10
2019-05-20T04:50:16.941Z,89.50
2019-05-20T04:52:48.442Z,89.80
2019-05-20T04:55:20.064Z,90.00
2019-05-20T04:57:52.081Z,90.20
2019-05-20T05:00:54.576Z,90.30
2019-05-20T05:03:25.980Z,90.30
2019-05-20T05:05:57.729Z,90.20
2019-05-20T05:08:29.251Z,90.20
2019-05-20T05:11:00.814Z,90.10
2019-05-20T05:13:32.219Z,90.10
2019-05-20T05:16:03.894Z,90.10
2019-05-20T05:18:35.528Z,90.00
2019-05-20T05:21:07.123Z,89.70
2019-05-20T05:23:39.675Z,89.60
2019-05-20T05:26:11.054Z,89.50
2019-05-20T05:28:42.883Z,89.50
2019-05-20T05:31:14.512Z,88.80
2019-05-20T05:33:46.222Z,88.60
2019-05-20T05:36:17.468Z,87.60
2019-05-20T05:38:48.773Z,87.30
2019-05-20T05:41:20.083Z,86.40
2019-05-20T05:43:51.673Z,84.60
2019-05-20T05:46:23.150Z,83.20
2019-05-20T05:48:54.476Z,82.00
2019-05-20T05:51:26.009Z,81.40
2019-05-20T05:53:57.209Z,81.50
2019-05-20T05:56:28.473Z,81.10
2019-05-20T05:59:00.251Z,81.00
2019-05-20T06:01:32.586Z,80.60
2019-05-20T06:04:04.731Z,79.80
2019-05-20T06:06:36.410Z,79.50
2019-05-20T06:09:08.845Z,80.40
2019-05-20T06:11:40.359Z,79.20
2019-05-20T06:14:11.901Z,79.00
2019-05-20T06:16:43.658Z,79.00
2019-05-20T06:19:14.947Z,79.10
2019-05-20T06:21:46.326Z,79.10
2019-05-20T06:24:17.663Z,79.20
2019-05-20T06:26:49.017Z,79.20
2019-05-20T06:29:20.417Z,79.20
2019-05-20T06:31:52.303Z,79.70
2019-05-20T06:34:24.025Z,79.30
2019-05-20T06:36:57.738Z,79.40
2019-05-20T06:39:29.535Z,79.10
2019-05-20T06:42:00.846Z,78.90
2019-05-20T06:44:32.252Z,78.80
2019-05-20T06:47:03.655Z,79.00
2019-05-20T06:49:34.971Z,78.80
2019-05-20T06:52:07.290Z,78.50
2019-05-20T06:54:38.740Z,78.80
2019-05-20T06:57:10.445Z,79.00
2019-05-20T06:59:42.987Z,78.80
2019-05-20T07:02:16.407Z,78.60
2019-05-20T07:04:47.890Z,77.90
2019-05-20T07:07:21.289Z,76.80
2019-05-20T07:09:53.699Z,76.00
2019-05-20T07:12:40.046Z,75.50
2019-05-20T07:14:58.275Z,75.30
2019-05-20T07:17:29.643Z,75.10
2019-05-20T07:20:01.140Z,74.60
2019-05-20T07:22:33.195Z,75.50
2019-05-20T07:25:04.694Z,74.50
2019-05-20T07:27:36.891Z,73.80
2019-05-20T07:30:09.555Z,71.90
2019-05-20T07:32:41.068Z,69.60
2019-05-20T07:35:28.777Z,68.30
2019-05-20T07:37:46.510Z,66.90
2019-05-20T07:43:28.108Z,64.10
2019-05-20T07:46:00.290Z,63.10
2019-05-20T07:48:33.166Z,62.80
2019-05-20T07:51:05.933Z,63.20
2019-05-20T07:53:38.100Z,63.90
2019-05-20T08:08:06.377Z,59.30
2019-05-20T08:10:37.966Z,59.70
2019-05-20T08:13:09.581Z,60.20
2019-05-20T08:15:41.242Z,60.90
2019-05-20T08:18:12.617Z,60.30
2019-05-20T08:20:44.082Z,59.10
2019-05-20T08:23:15.330Z,58.10
2019-05-20T08:25:46.635Z,57.30
2019-05-20T08:28:18.231Z,57.10
2019-05-20T08:30:50.016Z,57.20
2019-05-20T08:33:21.692Z,57.00
2019-05-20T08:35:53.276Z,56.70
2019-05-20T08:38:24.623Z,56.60
2019-05-20T08:40:56.123Z,56.70
2019-05-20T08:43:27.698Z,56.80
2019-05-20T08:45:59.216Z,56.50
2019-05-20T08:48:31.115Z,55.80
2019-05-20T08:51:02.757Z,56.80
2019-05-20T08:53:34.532Z,55.90
2019-05-20T08:56:06.017Z,55.30
2019-05-20T08:58:37.502Z,54.90
2019-05-20T09:01:11.350Z,54.70
2019-05-20T09:12:49.574Z,55.30
2019-05-20T09:15:21.167Z,55.80
2019-05-20T09:17:52.493Z,55.70
2019-05-20T09:20:24.530Z,56.00
2019-05-20T09:22:56.041Z,56.30
2019-05-20T09:25:32.294Z,56.90
2019-05-20T09:28:03.713Z,57.20
2019-05-20T09:30:35.103Z,57.60
2019-05-20T09:33:07.437Z,58.20
2019-05-20T09:35:41.055Z,58.90
2019-05-20T09:38:20.294Z,59.50
2019-05-20T09:40:47.458Z,60.20
2019-05-20T09:43:19.017Z,61.10
2019-05-20T09:46:06.241Z,61.40
2019-05-20T09:48:25.615Z,62.60
2019-05-20T09:50:57.245Z,63.60
2019-05-20T09:53:28.948Z,63.80
2019-05-20T09:56:00.836Z,64.10
2019-05-20T09:58:32.582Z,64.30
2019-05-20T10:01:04.154Z,63.60
2019-05-20T10:09:10.081Z,63.40
2019-05-20T10:11:42.336Z,63.00
2019-05-20T10:14:14.908Z,62.60
2019-05-20T10:16:49.341Z,62.40
2019-05-20T10:19:20.895Z,62.30
2019-05-20T10:21:52.517Z,62.70
2019-05-20T10:24:24.128Z,62.90
2019-05-20T10:26:58.818Z,62.60
2019-05-20T10:29:30.373Z,62.60
2019-05-20T10:32:01.962Z,62.30
2019-05-20T10:34:37.183Z,61.90
2019-05-20T10:37:07.080Z,61.50
2019-05-20T10:39:38.680Z,61.10
2019-05-20T10:42:10.512Z,60.80
2019-05-20T10:44:42.141Z,60.00
2019-05-20T10:47:13.804Z,60.20
2019-05-20T10:55:39.256Z,59.70
2019-05-20T10:58:10.726Z,59.50
2019-05-20T11:01:01.074Z,59.60
2019-05-20T11:09:14.310Z,59.90
2019-05-20T11:11:45.943Z,58.60
2019-05-20T11:14:17.161Z,59.10
2019-05-20T11:16:48.556Z,58.00
2019-05-20T11:19:20.006Z,58.00
2019-05-20T11:21:51.406Z,58.00
2019-05-20T11:24:23.061Z,58.70
2019-05-20T11:26:54.335Z,59.40
2019-05-20T11:29:26.087Z,60.10
2019-05-20T11:31:57.507Z,60.80
2019-05-20T11:34:28.843Z,61.00
2019-05-20T11:37:00.688Z,61.40
2019-05-20T11:39:34.102Z,61.20
2019-05-20T11:42:05.755Z,60.80
2019-05-20T11:44:37.094Z,59.80
2019-05-20T11:47:08.605Z,59.40
2019-05-20T11:49:40.365Z,58.80
2019-05-20T11:52:11.956Z,58.20
2019-05-20T11:54:43.727Z,57.90
2019-05-20T11:57:15.029Z,58.20
2019-05-20T11:59:46.465Z,58.60
2019-05-20T12:08:28.319Z,60.80
2019-05-20T12:10:59.723Z,62.00
2019-05-20T13:36:03.660Z,64.40
2019-05-20T13:50:00.137Z,59.80
2019-05-20T14:13:02.834Z,59.30
2019-05-20T14:49:59.610Z,60.40
2019-05-20T14:59:59.103Z,61.50
2019-05-20T15:07:30.049Z,61.20
2019-05-20T15:11:01.158Z,62.10
2019-05-20T15:35:09.873Z,65.20
2019-05-20T15:38:51.511Z,65.10
2019-05-20T15:45:33.728Z,65.00
2019-05-20T15:48:57.687Z,64.80
2019-05-20T15:52:23.886Z,64.60
2019-05-20T15:55:59.633Z,64.00
2019-05-20T16:14:04.479Z,63.70
2019-05-20T16:17:25.621Z,63.70
2019-05-20T16:21:28.121Z,64.00
2019-05-20T16:25:03.797Z,63.80
2019-05-20T16:28:34.846Z,63.50
2019-05-20T16:41:56.996Z,63.30
2019-05-20T16:45:15.252Z,62.70
2019-05-20T16:48:43.451Z,62.70
2019-05-20T16:52:16.952Z,62.70
2019-05-20T16:55:45.607Z,63.20
2019-05-20T16:59:05.541Z,62.60
2019-05-20T17:02:26.089Z,62.50
2019-05-20T17:05:55.672Z,62.20
2019-05-20T17:09:15.349Z,61.80
2019-05-20T17:12:38.665Z,61.30
2019-05-20T17:15:58.204Z,61.20
2019-05-20T17:19:15.011Z,61.10
2019-05-20T17:22:03.228Z,60.90
2019-05-20T17:25:25.238Z,60.90
2019-05-20T17:28:45.234Z,60.80
2019-05-20T17:32:38.678Z,61.50
2019-05-20T17:36:01.055Z,60.70
2019-05-20T17:38:33.716Z,61.00
2019-05-20T17:41:05.611Z,61.00
2019-05-20T17:43:37.504Z,60.90
2019-05-20T17:46:08.947Z,61.10
2019-05-20T17:48:40.384Z,61.20
2019-05-20T17:51:12.443Z,61.60
2019-05-20T17:53:44.667Z,62.00
2019-05-20T17:56:16.290Z,62.20
2019-05-20T17:58:47.753Z,62.70
2019-05-20T18:01:19.245Z,63.00
2019-05-20T18:03:51.141Z,64.00
2019-05-20T18:06:22.724Z,63.60
2019-05-20T18:08:56.055Z,63.80
2019-05-20T18:11:27.333Z,64.10
2019-05-20T18:14:03.513Z,64.30
2019-05-20T18:16:35.096Z,64.60
2019-05-20T18:19:06.680Z,65.00
2019-05-20T18:21:38.269Z,65.20
2019-05-20T18:24:09.625Z,65.60
2019-05-20T18:26:40.999Z,66.00
2019-05-20T18:29:13.434Z,66.40
2019-05-20T18:31:46.829Z,67.00
2019-05-20T18:34:18.061Z,67.50
2019-05-20T18:36:49.406Z,67.80
2019-05-20T18:39:20.856Z,68.30
2019-05-20T18:41:52.451Z,68.90
2019-05-20T18:44:24.068Z,69.40
2019-05-20T18:46:55.462Z,70.10
2019-05-20T18:49:26.727Z,70.50
2019-05-20T18:51:58.055Z,70.90
2019-05-20T18:54:29.585Z,71.40
2019-05-20T18:57:01.931Z,71.60
2019-05-20T18:59:33.547Z,71.90
2019-05-20T19:02:05.905Z,72.40
2019-05-20T19:05:32.635Z,72.70
2019-05-20T19:09:04.925Z,73.10
2019-05-20T19:12:29.896Z,73.60
2019-05-20T19:15:59.258Z,74.10
2019-05-20T19:19:27.491Z,74.40
2019-05-20T19:23:16.993Z,74.90
2019-05-20T19:27:06.871Z,75.10
2019-05-20T19:30:55.518Z,75.50
2019-05-20T19:34:32.566Z,75.70
2019-05-20T19:41:36.853Z,76.30
2019-05-20T19:45:06.560Z,76.40
2019-05-20T19:48:29.176Z,76.60
2019-05-20T19:52:04.249Z,77.00
2019-05-20T20:03:35.900Z,78.10
2019-05-20T20:07:21.679Z,78.70
2019-05-20T20:14:30.686Z,79.40
2019-05-20T20:18:03.276Z,79.70
2019-05-20T20:21:23.949Z,80.00
2019-05-20T20:24:51.879Z,80.40
2019-05-20T20:28:18.858Z,80.60
2019-05-20T20:31:48.547Z,80.80
2019-05-20T20:38:26.500Z,80.90
2019-05-20T20:41:54.327Z,81.00
2019-05-20T20:45:23.639Z,81.10
2019-05-20T20:49:09.122Z,81.20
2019-05-20T20:52:32.754Z,82.30
2019-05-20T20:56:00.171Z,81.60
2019-05-20T20:59:32.216Z,81.90
2019-05-20T21:03:08.254Z,82.00
2019-05-20T21:06:29.021Z,82.00
2019-05-20T21:10:11.809Z,82.00
2019-05-20T21:14:06.406Z,82.10
2019-05-20T21:17:35.880Z,81.90
2019-05-20T21:21:13.376Z,81.90
2019-05-20T21:25:02.234Z,81.70
2019-05-20T21:28:53.014Z,81.80
2019-05-20T21:32:22.699Z,81.70
2019-05-20T21:35:53.865Z,81.90
2019-05-20T21:39:22.273Z,81.60
2019-05-20T21:42:38.590Z,81.40
2019-05-20T21:46:10.334Z,81.50
2019-05-20T21:49:46.453Z,81.50
2019-05-20T21:53:12.784Z,81.60
2019-05-20T21:56:34.546Z,81.60
2019-05-20T22:03:38.619Z,81.70
2019-05-20T22:07:06.253Z,81.80
2019-05-20T22:10:31.294Z,81.90
2019-05-20T22:13:55.131Z,81.70
2019-05-20T22:17:21.705Z,81.50
2019-05-20T22:20:44.814Z,81.80
2019-05-20T22:24:09.138Z,81.80
2019-05-20T22:27:33.161Z,82.10
2019-05-20T22:31:12.776Z,82.10
2019-05-20T22:34:51.340Z,82.20
2019-05-20T22:38:05.955Z,82.20
2019-05-20T22:41:27.970Z,82.20
2019-05-20T22:44:49.357Z,82.30
2019-05-20T22:48:20.746Z,82.20
2019-05-20T22:51:41.577Z,82.10
2019-05-20T22:55:24.010Z,82.40
2019-05-20T22:58:45.587Z,82.40
2019-05-20T23:02:02.135Z,82.10
2019-05-20T23:04:44.697Z,81.90
2019-05-20T23:07:16.171Z,81.50
2019-05-20T23:09:47.357Z,81.90
2019-05-20T23:12:18.758Z,81.70
2019-05-20T23:14:50.214Z,81.80
2019-05-20T23:17:21.593Z,81.90
2019-05-20T23:19:52.927Z,81.70
2019-05-20T23:22:24.189Z,81.70
2019-05-20T23:24:55.390Z,81.70
2019-05-20T23:27:26.884Z,81.50
2019-05-20T23:29:58.178Z,81.50
2019-05-20T23:32:29.819Z,82.40
2019-05-20T23:35:01.331Z,81.90
2019-05-20T23:37:33.084Z,81.90
2019-05-20T23:40:05.615Z,82.00
2019-05-20T23:42:38.055Z,82.20
2019-05-20T23:45:10.118Z,82.30
2019-05-20T23:47:41.656Z,82.30
2019-05-20T23:50:13.067Z,82.60
2019-05-20T23:52:44.810Z,82.90
2019-05-20T23:55:16.280Z,83.30
2019-05-20T23:57:47.725Z,83.50
